Time;durP1;ratioP1;P1;durP2;ratioP2;P2;SDS_P1;SDS_P2;PMS_P1;PMS_P2;Temp;Humidity;BMP_temperature;BMP_pressure;BME280_temperature;BME280_humidity;BME280_pressure;Samples;Min_cycle;Max_cycle;Signal;HPM_P1;HPM_P2
2022/03/29 00:01:32;;;;;;;10.87;7.33;;;;;;;;;;4953920;28;20288;-88
2022/03/29 00:03:58;;;;;;;15.50;7.25;;;9.10;93.10;;;;;;4954865;28;20211;-88
2022/03/29 00:06:24;;;;;;;14.43;6.97;;;;;;;;;;4960580;28;20212;-88
2022/03/29 00:08:50;;;;;;;15.25;8.40;;;9.10;92.90;;;;;;4967911;28;20187;-88
2022/03/29 00:11:18;;;;;;;18.87;9.87;;;9.10;94.10;;;;;;4970072;28;20180;-89
2022/03/29 00:13:44;;;;;;;15.75;10.18;;;9.00;93.20;;;;;;4950017;28;20199;-89
2022/03/29 00:16:10;;;;;;;16.35;9.77;;;8.90;93.10;;;;;;4954599;28;20183;-88
2022/03/29 00:18:35;;;;;;;14.00;8.33;;;8.80;93.70;;;;;;4957709;28;20200;-88
2022/03/29 00:21:01;;;;;;;16.67;9.80;;;8.60;93.80;;;;;;4955436;28;20228;-88
2022/03/29 00:23:26;;;;;;;17.50;9.80;;;8.50;93.90;;;;;;4952347;28;20207;-88
2022/03/29 00:25:52;;;;;;;19.03;9.63;;;8.50;94.00;;;;;;4960905;28;20239;-88
2022/03/29 00:28:17;;;;;;;14.27;9.03;;;8.50;93.70;;;;;;4962663;28;20187;-88
2022/03/29 00:30:43;;;;;;;17.40;9.47;;;8.50;94.40;;;;;;4957959;28;20755;-86
2022/03/29 00:33:09;;;;;;;15.50;8.53;;;8.40;95.80;;;;;;4958825;28;20283;-87
2022/03/29 00:35:34;;;;;;;13.70;8.60;;;8.40;96.20;;;;;;4957018;28;20275;-88
2022/03/29 00:38:00;;;;;;;16.73;9.27;;;;;;;;;;4962500;28;20451;-89
2022/03/29 00:40:27;;;;;;;26.40;10.10;;;8.40;95.70;;;;;;4958455;28;20558;-88
2022/03/29 00:42:52;;;;;;;24.15;9.60;;;8.40;95.60;;;;;;4955303;28;20478;-89
2022/03/29 00:45:18;;;;;;;15.20;8.60;;;8.50;95.40;;;;;;4957973;28;20228;-88
2022/03/29 00:47:43;;;;;;;18.17;9.60;;;8.50;95.10;;;;;;4968863;28;20180;-87
2022/03/29 00:50:10;;;;;;;22.67;10.60;;;8.50;95.20;;;;;;4971020;28;20561;-88
2022/03/29 00:52:37;;;;;;;15.40;7.78;;;8.50;95.10;;;;;;4963478;28;20706;-88
2022/03/29 00:55:05;;;;;;;11.43;7.93;;;8.50;95.00;;;;;;4970153;28;20204;-88
2022/03/29 00:57:34;;;;;;;14.20;8.20;;;8.50;95.30;;;;;;4956374;28;20189;-87
2022/03/29 01:00:03;;;;;;;15.10;8.77;;;8.50;95.30;;;;;;4953895;28;20298;-88
2022/03/29 01:02:28;;;;;;;17.58;9.75;;;8.50;95.70;;;;;;4959562;28;20552;-87
2022/03/29 01:04:54;;;;;;;12.03;7.77;;;8.40;96.00;;;;;;4959430;28;20211;-87
2022/03/29 01:07:19;;;;;;;14.20;8.60;;;8.40;96.00;;;;;;4960826;28;20531;-88
2022/03/29 01:09:45;;;;;;;12.97;8.10;;;8.40;96.60;;;;;;4958285;28;20184;-87
2022/03/29 01:12:11;;;;;;;16.43;8.57;;;;;;;;;;4958577;28;20267;-87
2022/03/29 01:14:38;;;;;;;13.87;9.40;;;8.40;97.80;;;;;;4958851;28;20207;-88
2022/03/29 01:19:50;;;;;;;18.38;10.23;;;8.30;98.20;;;;;;4959312;28;20238;-89
2022/03/29 01:22:19;;;;;;;22.77;10.07;;;8.40;97.60;;;;;;4958024;28;20664;-88
2022/03/29 01:24:46;;;;;;;22.52;11.63;;;8.40;97.40;;;;;;4955874;28;20322;-89
2022/03/29 01:27:12;;;;;;;18.13;11.93;;;8.40;97.20;;;;;;4956987;28;20180;-89
2022/03/29 01:29:39;;;;;;;23.80;12.60;;;8.40;97.60;;;;;;4954588;28;21305;-88
2022/03/29 01:32:08;;;;;;;16.73;10.60;;;8.30;97.80;;;;;;4972685;28;20195;-89
2022/03/29 01:34:41;;;;;;;16.33;9.35;;;8.30;97.70;;;;;;4954615;28;20329;-88
2022/03/29 01:37:07;;;;;;;15.55;9.73;;;8.20;97.60;;;;;;4954854;28;20326;-88
2022/03/29 01:39:34;;;;;;;22.58;11.05;;;8.10;97.50;;;;;;4964511;28;20271;-88
2022/03/29 01:42:00;;;;;;;15.00;8.77;;;8.20;97.80;;;;;;4954236;28;20188;-88
2022/03/29 01:44:26;;;;;;;15.65;9.25;;;8.30;98.60;;;;;;4955739;28;20231;-89
2022/03/29 01:46:52;;;;;;;15.50;9.00;;;8.20;99.40;;;;;;4953569;28;20573;-88
2022/03/29 01:49:18;;;;;;;17.98;10.35;;;8.10;99.90;;;;;;4971565;28;20191;-88
2022/03/29 01:51:44;;;;;;;15.37;9.20;;;7.80;99.90;;;;;;4952698;28;20222;-86
2022/03/29 01:54:09;;;;;;;19.60;9.70;;;7.60;99.90;;;;;;4970560;28;20219;-89
2022/03/29 01:56:36;;;;;;;25.47;9.30;;;7.50;99.90;;;;;;4951143;28;20445;-89
2022/03/29 01:59:07;;;;;;;18.67;10.45;;;7.30;99.90;;;;;;4956681;28;20192;-88
2022/03/29 02:01:46;;;;;;;19.83;10.95;;;7.30;99.90;;;;;;4953370;28;20200;-89
2022/03/29 02:04:13;;;;;;;18.65;9.88;;;7.20;99.90;;;;;;4973341;28;20207;-89
2022/03/29 02:06:39;;;;;;;16.48;8.95;;;7.10;99.90;;;;;;4956728;28;20258;-88
2022/03/29 02:09:08;;;;;;;17.70;9.80;;;7.10;99.90;;;;;;4952516;28;20186;-88
2022/03/29 02:11:35;;;;;;;21.65;9.25;;;7.00;99.90;;;;;;4965975;28;20176;-88
2022/03/29 02:14:01;;;;;;;17.75;9.07;;;6.80;99.90;;;;;;4972717;28;20200;-88
2022/03/29 02:16:26;;;;;;;16.70;9.73;;;6.90;99.90;;;;;;4956871;28;20451;-87
2022/03/29 02:18:52;;;;;;;16.43;8.60;;;6.90;99.90;;;;;;4957165;28;20727;-88
2022/03/29 02:21:18;;;;;;;16.30;9.23;;;7.00;99.90;;;;;;4966863;28;20275;-88
2022/03/29 02:23:43;;;;;;;16.57;9.53;;;7.00;99.90;;;;;;4956918;28;20481;-87
2022/03/29 02:26:09;;;;;;;13.53;8.60;;;;;;;;;;4954908;28;20223;-86
2022/03/29 02:28:35;;;;;;;16.80;9.20;;;7.20;99.90;;;;;;4960467;28;20187;-86
2022/03/29 02:31:01;;;;;;;16.90;7.97;;;7.30;99.90;;;;;;4975068;28;20451;-88
2022/03/29 02:33:26;;;;;;;13.23;7.37;;;7.60;99.90;;;;;;4956462;28;20215;-87
2022/03/29 02:35:52;;;;;;;21.70;11.17;;;7.60;99.90;;;;;;4955080;28;20447;-87
2022/03/29 02:38:18;;;;;;;18.50;9.23;;;7.60;99.90;;;;;;4954036;28;20231;-86
2022/03/29 02:40:47;;;;;;;22.07;9.97;;;7.60;99.90;;;;;;4953843;28;20183;-89
2022/03/29 02:43:13;;;;;;;24.20;12.25;;;7.30;99.90;;;;;;4956472;28;20552;-89
2022/03/29 02:45:39;;;;;;;24.63;10.10;;;7.30;99.90;;;;;;4952110;28;20210;-88
2022/03/29 02:48:05;;;;;;;19.03;9.10;;;7.20;99.90;;;;;;4970726;28;20443;-87
2022/03/29 02:50:30;;;;;;;19.10;10.73;;;7.20;99.90;;;;;;4948273;28;20184;-88
2022/03/29 02:52:59;;;;;;;16.20;9.17;;;7.10;99.90;;;;;;4954516;28;20241;-88
2022/03/29 02:55:27;;;;;;;18.50;9.70;;;7.10;99.90;;;;;;4948803;28;21838;-86
2022/03/29 02:57:53;;;;;;;18.00;8.75;;;7.20;99.90;;;;;;4948999;28;20233;-88
2022/03/29 03:00:20;;;;;;;17.90;9.35;;;7.20;99.90;;;;;;4951005;28;20184;-86
2022/03/29 03:02:48;;;;;;;17.27;9.13;;;7.20;99.90;;;;;;4953610;28;20191;-87
2022/03/29 03:05:14;;;;;;;22.50;9.18;;;7.20;99.90;;;;;;4954741;28;20200;-87
2022/03/29 03:07:41;;;;;;;21.90;9.55;;;7.30;99.90;;;;;;4953388;28;20186;-88
2022/03/29 03:10:07;;;;;;;17.30;8.98;;;7.40;99.90;;;;;;4953151;28;20188;-88
2022/03/29 03:12:37;;;;;;;13.70;8.73;;;7.40;99.90;;;;;;4953998;28;20189;-89
2022/03/29 03:15:04;;;;;;;17.67;9.13;;;7.40;99.90;;;;;;4948589;28;20212;-88
2022/03/29 03:17:29;;;;;;;18.35;11.65;;;7.40;99.90;;;;;;4951398;28;20184;-90
2022/03/29 03:19:55;;;;;;;26.47;12.30;;;7.40;99.90;;;;;;4942983;28;25097;-88
2022/03/29 03:22:20;;;;;;;20.27;10.33;;;7.40;99.90;;;;;;4948016;28;20282;-88
2022/03/29 03:24:46;;;;;;;17.33;9.20;;;;;;;;;;4965835;28;20261;-87
2022/03/29 03:27:12;;;;;;;20.83;7.37;;;7.40;99.90;;;;;;4948966;28;20605;-88
2022/03/29 03:29:38;;;;;;;16.70;9.00;;;;;;;;;;4942443;28;20473;-87
2022/03/29 03:32:04;;;;;;;16.20;9.00;;;7.20;99.90;;;;;;4969654;28;21181;-89
2022/03/29 03:34:30;;;;;;;17.95;9.35;;;7.30;99.90;;;;;;4955097;28;20494;-87
2022/03/29 03:36:56;;;;;;;18.33;8.97;;;7.20;99.90;;;;;;4976240;28;20304;-87
2022/03/29 03:39:22;;;;;;;15.00;9.10;;;7.00;99.90;;;;;;4957334;28;20557;-87
2022/03/29 03:41:48;;;;;;;17.73;8.80;;;6.90;99.90;;;;;;4956778;28;20191;-87
2022/03/29 03:44:14;;;;;;;13.50;8.37;;;;;;;;;;4959077;28;20207;-88
2022/03/29 03:46:39;;;;;;;17.67;9.45;;;6.90;99.90;;;;;;4964932;28;20847;-87
2022/03/29 03:49:06;;;;;;;19.10;9.50;;;6.90;99.90;;;;;;4954820;28;20275;-87
2022/03/29 03:51:31;;;;;;;16.80;9.65;;;6.90;99.90;;;;;;4951744;28;20194;-86
2022/03/29 03:53:57;;;;;;;22.03;8.00;;;6.90;99.90;;;;;;4948333;28;20207;-86
2022/03/29 03:56:22;;;;;;;23.13;10.37;;;7.00;99.90;;;;;;4951438;28;20450;-87
2022/03/29 03:58:48;;;;;;;20.90;11.50;;;;;;;;;;4953807;28;20188;-87
2022/03/29 04:01:14;;;;;;;23.43;12.13;;;7.00;99.90;;;;;;4956339;28;20745;-87
2022/03/29 04:03:39;;;;;;;17.37;10.27;;;7.10;99.90;;;;;;4951392;28;20458;-87
2022/03/29 04:06:05;;;;;;;19.70;11.40;;;7.10;99.90;;;;;;4954164;28;20203;-87
2022/03/29 04:08:31;;;;;;;20.47;11.10;;;7.20;99.90;;;;;;4948582;28;20192;-87
2022/03/29 04:10:57;;;;;;;18.27;10.03;;;7.20;99.90;;;;;;4947417;28;20194;-87
2022/03/29 04:13:22;;;;;;;14.48;7.90;;;7.00;99.90;;;;;;4968466;28;20191;-87
2022/03/29 04:15:48;;;;;;;18.13;8.53;;;7.00;99.90;;;;;;4944074;28;20199;-87
2022/03/29 04:18:14;;;;;;;16.67;9.77;;;6.80;99.90;;;;;;4954970;28;20187;-87
2022/03/29 04:20:40;;;;;;;19.00;10.13;;;6.70;99.90;;;;;;4950781;28;20202;-88
2022/03/29 04:23:07;;;;;;;20.85;10.15;;;6.80;99.90;;;;;;4954435;28;20622;-87
2022/03/29 04:25:33;;;;;;;20.67;10.25;;;6.80;99.90;;;;;;4968426;28;20311;-86
2022/03/29 04:27:59;;;;;;;20.35;10.35;;;6.80;99.90;;;;;;4972272;28;20203;-87
2022/03/29 04:30:25;;;;;;;18.17;9.33;;;6.70;99.90;;;;;;4953660;28;20215;-86
2022/03/29 04:32:51;;;;;;;20.48;12.18;;;6.70;99.90;;;;;;4954764;28;22100;-87
2022/03/29 04:35:16;;;;;;;21.77;11.97;;;6.70;99.90;;;;;;4955556;28;20211;-85
2022/03/29 04:37:42;;;;;;;25.50;11.37;;;6.70;99.90;;;;;;4951453;28;20465;-85
2022/03/29 04:40:09;;;;;;;21.50;11.87;;;6.60;99.90;;;;;;4954018;28;20192;-85
2022/03/29 04:42:45;;;;;;;21.50;12.18;;;6.60;99.90;;;;;;4944717;28;20856;-86
2022/03/29 04:45:12;;;;;;;20.33;11.48;;;6.50;99.90;;;;;;4944394;28;20231;-86
2022/03/29 04:47:38;;;;;;;16.90;10.70;;;6.60;99.90;;;;;;4940390;28;20248;-85
2022/03/29 04:50:05;;;;;;;16.90;11.43;;;6.80;99.90;;;;;;4955438;28;20199;-85
2022/03/29 04:52:30;;;;;;;36.30;23.27;;;6.90;99.90;;;;;;4948730;28;20184;-85
2022/03/29 04:54:56;;;;;;;38.77;18.40;;;6.70;99.90;;;;;;4945179;28;20204;-85
2022/03/29 04:57:21;;;;;;;36.50;19.07;;;6.70;99.90;;;;;;4963602;28;20253;-87
2022/03/29 04:59:47;;;;;;;27.57;15.63;;;;;;;;;;4953365;28;20950;-87
2022/03/29 05:02:13;;;;;;;24.60;14.70;;;6.60;99.90;;;;;;4972243;28;20183;-88
2022/03/29 05:04:38;;;;;;;23.80;13.93;;;6.60;99.90;;;;;;4960979;28;20975;-88
2022/03/29 05:07:04;;;;;;;20.57;12.17;;;6.70;99.90;;;;;;4949161;28;20479;-88
2022/03/29 05:09:29;;;;;;;20.50;11.60;;;6.70;99.90;;;;;;4952855;28;20180;-88
2022/03/29 05:11:57;;;;;;;18.13;10.07;;;6.70;99.90;;;;;;4959535;28;20184;-89
2022/03/29 05:14:22;;;;;;;23.67;10.68;;;6.70;99.90;;;;;;4959956;28;20222;-87
2022/03/29 05:16:48;;;;;;;21.80;11.67;;;6.50;99.90;;;;;;4958327;28;20995;-87
2022/03/29 05:19:14;;;;;;;20.73;11.17;;;8.70;99.90;;;;;;4954569;28;20208;-87
2022/03/29 05:21:39;;;;;;;18.80;11.37;;;6.20;99.90;;;;;;4970385;28;20676;-88
2022/03/29 05:24:05;;;;;;;23.20;13.00;;;6.20;99.90;;;;;;4955685;28;20210;-88
2022/03/29 05:26:31;;;;;;;21.03;12.80;;;6.30;99.90;;;;;;4955022;28;20207;-88
2022/03/29 05:28:56;;;;;;;27.33;12.47;;;6.40;99.90;;;;;;4956915;28;20579;-87
2022/03/29 05:31:23;;;;;;;24.20;12.57;;;;;;;;;;4958036;28;20211;-87
2022/03/29 05:33:48;;;;;;;29.00;12.32;;;6.60;99.90;;;;;;4953066;28;20208;-87
2022/03/29 05:36:14;;;;;;;23.70;13.10;;;6.70;99.90;;;;;;4957618;28;20199;-88
2022/03/29 05:38:41;;;;;;;23.38;12.52;;;6.90;99.90;;;;;;4950948;28;20191;-88
2022/03/29 05:41:06;;;;;;;21.70;13.15;;;7.10;99.90;;;;;;4957948;28;20970;-88
2022/03/29 05:43:34;;;;;;;24.40;12.13;;;7.20;99.90;;;;;;4957982;28;20211;-86
2022/03/29 05:48:52;;;;;;;20.02;12.35;;;7.20;99.90;;;;;;4963348;28;20237;-88
2022/03/29 05:51:19;;;;;;;56.25;16.25;;;7.30;99.90;;;;;;4957025;28;20541;-88
2022/03/29 05:53:45;;;;;;;23.88;13.05;;;7.50;99.90;;;;;;4961846;28;21032;-89
2022/03/29 05:56:10;;;;;;;23.87;13.23;;;7.80;99.90;;;;;;4955854;28;20222;-88
2022/03/29 05:58:36;;;;;;;20.07;11.10;;;8.00;99.90;;;;;;4948790;28;20652;-89
2022/03/29 06:01:02;;;;;;;18.57;11.33;;;8.20;99.90;;;;;;4954763;28;20199;-87
2022/03/29 06:03:28;;;;;;;28.13;12.67;;;8.30;99.90;;;;;;4955978;28;20462;-88
2022/03/29 06:05:53;;;;;;;16.47;10.80;;;8.40;99.90;;;;;;4984694;28;20218;-90
2022/03/29 06:08:19;;;;;;;16.30;9.70;;;8.50;99.90;;;;;;4970057;28;20203;-89
2022/03/29 06:10:44;;;;;;;17.93;10.27;;;8.60;99.90;;;;;;4961384;28;20200;-87
2022/03/29 06:13:12;;;;;;;20.73;10.80;;;9.20;99.90;;;;;;4954720;28;20203;-90
2022/03/29 06:15:38;;;;;;;25.90;11.60;;;9.20;99.90;;;;;;4955542;28;20770;-88
2022/03/29 06:18:04;;;;;;;19.67;10.07;;;9.50;99.90;;;;;;4956011;28;20180;-87
2022/03/29 06:20:30;;;;;;;19.77;9.80;;;10.00;99.90;;;;;;4954100;28;20513;-88
2022/03/29 06:22:56;;;;;;;20.48;11.18;;;10.60;99.90;;;;;;4954795;28;20300;-89
2022/03/29 06:25:21;;;;;;;20.93;10.63;;;11.20;99.90;;;;;;4951075;28;20800;-89
2022/03/29 06:27:47;;;;;;;25.03;13.57;;;11.70;99.90;;;;;;4970788;28;21828;-89
2022/03/29 06:30:14;;;;;;;18.33;12.23;;;12.00;99.90;;;;;;4967283;28;20191;-89
2022/03/29 06:32:48;;;;;;;18.60;11.10;;;12.40;99.90;;;;;;4951524;28;20238;-88
2022/03/29 06:35:13;;;;;;;26.95;12.60;;;12.80;99.90;;;;;;4949413;28;20230;-88
2022/03/29 06:37:40;;;;;;;19.23;10.80;;;12.80;99.90;;;;;;4946407;28;20676;-89
2022/03/29 06:40:06;;;;;;;20.70;11.50;;;13.20;99.90;;;;;;4950008;28;20278;-90
2022/03/29 06:42:32;;;;;;;24.33;11.82;;;13.60;99.90;;;;;;4939103;28;20205;-88
2022/03/29 06:44:57;;;;;;;16.40;10.97;;;14.20;99.90;;;;;;4943914;28;20207;-89
2022/03/29 06:47:23;;;;;;;22.03;13.30;;;14.50;99.40;;;;;;4964583;28;20250;-90
2022/03/29 06:49:48;;;;;;;23.43;13.33;;;15.70;98.80;;;;;;4950686;28;20277;-89
2022/03/29 06:52:14;;;;;;;22.60;13.57;;;15.00;97.90;;;;;;4954332;28;20184;-89
2022/03/29 06:54:41;;;;;;;24.53;13.13;;;15.50;98.30;;;;;;4948621;28;20238;-89
2022/03/29 06:57:06;;;;;;;19.33;13.63;;;16.10;97.80;;;;;;4949131;28;20269;-89
2022/03/29 06:59:32;;;;;;;21.03;12.63;;;16.60;96.70;;;;;;4951090;28;20447;-90
2022/03/29 07:01:57;;;;;;;20.30;13.60;;;17.10;95.10;;;;;;4954475;28;20188;-90
2022/03/29 07:04:23;;;;;;;23.23;13.83;;;;;;;;;;4949269;28;20231;-89
2022/03/29 07:06:49;;;;;;;23.60;14.37;;;16.40;92.00;;;;;;4962839;28;20227;-89
2022/03/29 07:11:58;;;;;;;18.37;13.03;;;16.30;91.60;;;;;;4955956;28;20194;-89
2022/03/29 07:14:24;;;;;;;25.27;14.10;;;16.90;92.10;;;;;;4956189;28;20459;-88
2022/03/29 07:16:50;;;;;;;20.60;14.50;;;16.50;91.60;;;;;;4957723;28;20192;-89
2022/03/29 07:19:16;;;;;;;21.67;14.27;;;16.60;91.20;;;;;;4952887;28;20206;-88
2022/03/29 07:21:43;;;;;;;22.60;13.53;;;;;;;;;;4957611;28;20858;-89
2022/03/29 07:24:11;;;;;;;29.37;16.07;;;17.80;90.70;;;;;;4958454;28;21210;-89
2022/03/29 07:26:37;;;;;;;32.20;15.00;;;18.70;90.30;;;;;;4950901;28;20470;-89
2022/03/29 07:29:04;;;;;;;24.03;14.70;;;19.50;86.90;;;;;;4958280;28;20435;-89
2022/03/29 07:31:31;;;;;;;24.33;14.77;;;20.10;80.70;;;;;;4958373;28;20443;-88
2022/03/29 07:33:56;;;;;;;30.00;17.00;;;20.60;75.70;;;;;;4958092;28;20611;-89
2022/03/29 07:36:22;;;;;;;33.97;17.50;;;21.30;74.80;;;;;;4960391;28;20978;-89
2022/03/29 07:38:48;;;;;;;27.33;16.80;;;21.70;67.30;;;;;;4957579;28;20187;-89
2022/03/29 07:41:13;;;;;;;35.17;16.97;;;21.40;64.70;;;;;;4960544;28;20571;-90
2022/03/29 07:43:39;;;;;;;31.30;17.87;;;21.20;63.40;;;;;;4955524;28;20470;-88
2022/03/29 07:46:05;;;;;;;29.73;16.33;;;21.70;63.50;;;;;;4954981;28;20208;-88
2022/03/29 07:48:31;;;;;;;36.57;17.13;;;22.10;64.00;;;;;;4957553;28;20190;-89
2022/03/29 07:50:57;;;;;;;39.30;17.87;;;;;;;;;;4960236;28;20435;-89
2022/03/29 07:53:25;;;;;;;36.13;18.90;;;;;;;;;;4964391;28;20194;-88
2022/03/29 07:55:52;;;;;;;39.73;19.97;;;23.20;56.00;;;;;;4977652;28;20493;-88
2022/03/29 07:58:19;;;;;;;37.80;18.83;;;23.00;56.30;;;;;;4958919;28;20450;-89
2022/03/29 08:00:49;;;;;;;40.40;20.10;;;22.60;55.40;;;;;;4960501;28;20465;-88
2022/03/29 08:03:16;;;;;;;32.00;17.97;;;22.50;54.30;;;;;;4961510;28;20445;-88
2022/03/29 08:05:44;;;;;;;30.87;18.30;;;22.40;54.80;;;;;;4957336;28;20544;-89
2022/03/29 08:08:11;;;;;;;32.10;17.50;;;21.30;56.00;;;;;;4959383;28;20535;-89
2022/03/29 08:10:37;;;;;;;28.73;16.53;;;20.80;58.00;;;;;;4954338;28;20459;-89
2022/03/29 08:13:07;;;;;;;30.57;18.83;;;19.40;59.10;;;;;;4959278;28;20442;-88
2022/03/29 08:15:33;;;;;;;32.77;18.00;;;;;;;;;;4954714;28;20458;-89
2022/03/29 08:17:59;;;;;;;33.03;16.90;;;18.70;60.00;;;;;;4958088;28;20493;-89
2022/03/29 08:20:26;;;;;;;27.37;17.23;;;19.10;64.50;;;;;;4958600;28;20880;-89
2022/03/29 08:22:53;;;;;;;26.73;17.40;;;17.90;67.10;;;;;;4975135;28;20438;-89
2022/03/29 08:25:21;;;;;;;34.07;19.80;;;18.50;68.30;;;;;;4974664;28;20494;-89
2022/03/29 08:27:48;;;;;;;28.57;19.77;;;23.00;70.90;;;;;;4961487;28;20505;-89
2022/03/29 08:30:15;;;;;;;29.97;19.07;;;;;;;;;;4960212;28;20470;-87
2022/03/29 08:32:41;;;;;;;33.10;19.30;;;21.20;61.00;;;;;;4954626;28;20431;-88
2022/03/29 08:35:08;;;;;;;44.23;18.60;;;22.50;60.10;;;;;;4959839;28;20849;-90
2022/03/29 08:37:36;;;;;;;33.90;17.97;;;21.50;59.20;;;;;;4954237;28;20450;-89
2022/03/29 08:40:06;;;;;;;27.70;17.90;;;20.00;59.60;;;;;;4957434;28;20561;-89
2022/03/29 08:42:32;;;;;;;30.93;18.70;;;19.30;60.20;;;;;;4960563;28;20446;-88
2022/03/29 08:44:59;;;;;;;37.77;19.17;;;19.70;63.60;;;;;;4961500;28;20451;-90
2022/03/29 08:47:25;;;;;;;32.03;18.60;;;;;;;;;;4959138;28;20442;-89
2022/03/29 08:49:51;;;;;;;41.33;21.83;;;20.70;58.90;;;;;;4991860;23;20490;-85
2022/03/29 08:52:18;;;;;;;36.50;20.70;;;20.30;59.50;;;;;;4980759;28;20448;-84
2022/03/29 08:54:44;;;;;;;41.50;20.00;;;20.00;59.80;;;;;;4990068;28;20188;-87
2022/03/29 08:57:11;;;;;;;41.53;21.13;;;20.70;59.80;;;;;;4978289;28;20446;-86
2022/03/29 08:59:37;;;;;;;40.60;23.07;;;20.40;60.40;;;;;;4968047;28;20462;-85
2022/03/29 09:02:16;;;;;;;42.17;20.70;;;20.60;60.50;;;;;;4967685;28;20442;-85
2022/03/29 09:04:43;;;;;;;35.57;18.70;;;20.80;60.60;;;;;;4957287;28;20459;-83
2022/03/29 09:07:09;;;;;;;31.83;18.70;;;21.30;59.00;;;;;;4956517;28;20518;-85
2022/03/29 09:09:40;;;;;;;38.73;21.53;;;21.60;58.30;;;;;;4948143;28;20463;-83
2022/03/29 09:12:20;;;;;;;41.53;22.40;;;22.20;58.70;;;;;;4956210;28;20434;-86
2022/03/29 09:15:00;;;;;;;48.00;22.67;;;22.00;57.50;;;;;;4955736;28;20522;-85
2022/03/29 09:17:30;;;;;;;37.07;22.63;;;21.70;58.10;;;;;;4954987;28;20444;-85
2022/03/29 09:19:57;;;;;;;35.60;20.43;;;21.40;57.80;;;;;;4953764;28;20522;-83
2022/03/29 09:22:45;;;;;;;36.63;20.33;;;21.60;57.80;;;;;;4953184;28;20503;-85
2022/03/29 09:25:16;;;;;;;40.10;21.50;;;21.70;57.50;;;;;;4950922;28;20451;-83
2022/03/29 09:27:58;;;;;;;38.83;21.27;;;22.80;57.60;;;;;;4952808;28;20452;-84
2022/03/29 09:30:46;;;;;;;34.23;20.40;;;22.30;55.10;;;;;;4950698;28;20583;-84
2022/03/29 09:33:16;;;;;;;40.80;21.53;;;21.70;55.10;;;;;;4951497;28;20863;-84
2022/03/29 09:35:57;;;;;;;40.30;20.10;;;21.30;56.20;;;;;;4952694;28;20535;-84
2022/03/29 09:38:37;;;;;;;41.97;20.80;;;21.30;57.60;;;;;;4949328;28;20467;-83
2022/03/29 09:41:06;;;;;;;39.57;22.03;;;21.40;55.20;;;;;;4952331;28;20451;-86
2022/03/29 09:43:32;;;;;;;41.10;21.30;;;21.30;55.70;;;;;;4951789;28;20545;-86
2022/03/29 09:46:00;;;;;;;36.80;20.50;;;21.10;57.40;;;;;;4951069;28;20464;-86
2022/03/29 09:48:32;;;;;;;42.63;21.13;;;21.60;56.20;;;;;;4953260;28;20475;-83
2022/03/29 09:51:17;;;;;;;41.57;21.40;;;21.30;55.10;;;;;;4956741;28;20450;-84
2022/03/29 09:53:53;;;;;;;41.43;20.43;;;20.60;55.30;;;;;;4959832;28;20447;-85
2022/03/29 09:56:26;;;;;;;36.60;19.57;;;20.80;57.80;;;;;;4960738;28;20445;-83
2022/03/29 09:59:14;;;;;;;36.53;18.70;;;20.10;56.10;;;;;;4955682;28;20463;-84
2022/03/29 10:01:52;;;;;;;38.33;19.23;;;19.60;57.50;;;;;;4957365;28;20431;-84
2022/03/29 10:04:18;;;;;;;36.93;19.67;;;19.20;56.30;;;;;;4953589;28;20439;-85
2022/03/29 10:06:46;;;;;;;35.63;19.00;;;19.10;55.30;;;;;;4952557;28;20471;-83
2022/03/29 10:09:27;;;;;;;59.30;19.73;;;18.90;56.90;;;;;;4957615;28;20541;-84
2022/03/29 10:11:57;;;;;;;38.23;19.60;;;18.50;58.00;;;;;;4955606;28;20793;-85
2022/03/29 10:14:25;;;;;;;46.13;20.93;;;18.00;57.90;;;;;;4966710;28;20427;-82
2022/03/29 10:16:53;;;;;;;42.70;21.80;;;17.70;58.20;;;;;;4962487;28;20439;-84
2022/03/29 10:19:19;;;;;;;39.77;19.90;;;18.10;57.40;;;;;;4953845;28;21057;-84
2022/03/29 10:21:46;;;;;;;43.93;20.67;;;17.70;57.40;;;;;;4954144;28;20443;-83
2022/03/29 10:24:16;;;;;;;44.60;19.77;;;17.60;59.00;;;;;;4955307;28;20856;-83
2022/03/29 10:26:44;;;;;;;44.20;22.93;;;17.20;59.50;;;;;;4957356;28;20471;-84
2022/03/29 10:29:10;;;;;;;44.97;20.47;;;17.10;59.70;;;;;;4952996;28;20482;-84
2022/03/29 10:31:53;;;;;;;37.07;18.83;;;17.30;61.60;;;;;;4953473;28;20478;-84
2022/03/29 10:34:30;;;;;;;35.97;19.30;;;17.50;62.10;;;;;;4953037;28;20432;-82
2022/03/29 10:37:05;;;;;;;41.53;19.33;;;17.30;61.10;;;;;;4953521;28;20538;-84
2022/03/29 10:39:56;;;;;;;40.50;22.47;;;17.40;61.80;;;;;;4954175;28;20853;-85
2022/03/29 10:42:46;;;;;;;35.27;18.57;;;17.70;58.80;;;;;;4954109;28;20539;-83
2022/03/29 10:45:22;;;;;;;37.97;20.33;;;17.90;58.40;;;;;;4951246;28;20525;-83
2022/03/29 10:47:58;;;;;;;43.47;21.10;;;18.10;57.00;;;;;;4950808;28;20434;-84
2022/03/29 10:50:46;;;;;;;37.17;19.30;;;18.20;57.40;;;;;;4951564;28;23115;-84
2022/03/29 10:53:28;;;;;;;32.43;18.83;;;18.50;55.90;;;;;;4951247;28;20952;-85
2022/03/29 10:56:13;;;;;;;38.97;19.70;;;18.90;57.20;;;;;;4952917;28;20946;-84
2022/03/29 10:59:04;;;;;;;43.07;20.17;;;19.20;55.30;;;;;;4958867;28;20513;-85
2022/03/29 11:01:31;;;;;;;37.20;19.77;;;19.40;56.10;;;;;;4948788;28;20541;-85
2022/03/29 11:04:28;;;;;;;34.43;18.67;;;19.30;53.90;;;;;;4953942;28;20465;-87
2022/03/29 11:07:09;;;;;;;35.13;19.17;;;19.50;53.90;;;;;;4947435;28;20483;-83
2022/03/29 11:09:36;;;;;;;35.57;19.10;;;19.70;53.90;;;;;;4955592;28;20447;-84
2022/03/29 11:12:03;;;;;;;34.00;20.20;;;;;;;;;;4951947;28;20435;-85
2022/03/29 11:14:33;;;;;;;44.53;20.80;;;19.30;54.00;;;;;;4951609;28;20440;-84
2022/03/29 11:17:14;;;;;;;38.30;20.90;;;19.40;55.50;;;;;;4956404;28;20454;-83
2022/03/29 11:19:46;;;;;;;38.30;22.13;;;19.50;56.30;;;;;;4952382;28;20459;-84
2022/03/29 11:22:31;;;;;;;43.73;22.27;;;19.60;58.60;;;;;;4950439;28;20446;-84
2022/03/29 11:25:02;;;;;;;48.40;22.93;;;20.40;57.90;;;;;;4951580;28;20963;-83
2022/03/29 11:27:31;;;;;;;39.73;23.00;;;20.50;56.40;;;;;;4949376;28;20560;-84
2022/03/29 11:29:57;;;;;;;44.10;22.37;;;21.00;57.00;;;;;;4949261;28;20452;-85
2022/03/29 11:32:22;;;;;;;40.87;22.73;;;21.50;55.60;;;;;;4956608;28;20428;-85
2022/03/29 11:34:53;;;;;;;37.60;21.60;;;21.40;54.40;;;;;;4961880;28;20227;-82
2022/03/29 11:37:38;;;;;;;40.90;22.50;;;21.40;56.00;;;;;;4957683;28;20276;-85
2022/03/29 11:40:06;;;;;;;36.93;22.70;;;21.50;54.10;;;;;;4957420;28;20598;-83
2022/03/29 11:42:54;;;;;;;40.53;22.10;;;21.60;53.90;;;;;;4961420;28;20450;-84
2022/03/29 11:45:27;;;;;;;39.07;22.87;;;21.20;54.00;;;;;;4942207;28;20456;-84
2022/03/29 11:47:55;;;;;;;40.67;22.90;;;21.90;54.10;;;;;;4942638;28;20452;-83
2022/03/29 11:50:44;;;;;;;41.70;21.60;;;21.80;52.40;;;;;;4939969;28;21106;-87
2022/03/29 11:53:26;;;;;;;43.60;21.87;;;21.80;53.30;;;;;;4944895;28;20555;-84
2022/03/29 11:56:00;;;;;;;35.07;20.10;;;21.40;55.20;;;;;;4945064;28;20452;-85
2022/03/29 11:58:32;;;;;;;39.87;21.20;;;21.70;53.80;;;;;;4945548;28;20485;-84
2022/03/29 12:01:09;;;;;;;33.53;19.87;;;21.50;53.60;;;;;;4965829;28;20435;-83
2022/03/29 12:03:41;;;;;;;46.63;22.80;;;21.70;51.50;;;;;;4978667;28;20451;-83
2022/03/29 12:06:08;;;;;;;43.47;19.53;;;21.60;50.90;;;;;;4960681;28;20558;-86
2022/03/29 12:08:46;;;;;;;36.37;18.63;;;20.50;50.90;;;;;;4967017;28;20467;-85
2022/03/29 12:11:12;;;;;;;34.23;19.27;;;19.70;49.40;;;;;;4962355;28;20542;-86
2022/03/29 12:13:38;;;;;;;37.43;18.50;;;19.70;51.50;;;;;;4948739;28;20452;-86
2022/03/29 12:16:23;;;;;;;34.93;19.50;;;20.10;50.80;;;;;;4947604;28;20456;-85
2022/03/29 12:18:50;;;;;;;34.77;21.00;;;20.60;50.80;;;;;;4953110;28;20482;-84
2022/03/29 12:21:18;;;;;;;35.87;19.00;;;20.30;50.20;;;;;;4949593;28;20446;-85
2022/03/29 12:23:44;;;;;;;37.97;20.87;;;19.90;50.80;;;;;;4950284;28;20447;-84
2022/03/29 12:26:11;;;;;;;38.40;21.43;;;19.60;50.20;;;;;;4956834;28;20953;-83
2022/03/29 12:28:38;;;;;;;40.50;20.07;;;19.80;52.60;;;;;;4944342;28;21527;-86
2022/03/29 12:31:15;;;;;;;40.27;20.60;;;19.30;51.50;;;;;;4951884;28;20461;-84
2022/03/29 12:33:41;;;;;;;36.43;20.00;;;19.50;52.00;;;;;;4946454;28;20439;-84
2022/03/29 12:36:13;;;;;;;42.70;20.20;;;19.50;51.50;;;;;;4965268;28;20454;-83
2022/03/29 12:38:48;;;;;;;37.13;19.87;;;19.40;51.40;;;;;;4953607;28;21147;-83
2022/03/29 12:41:31;;;;;;;33.53;18.47;;;18.70;50.80;;;;;;4953828;28;20451;-85
2022/03/29 12:43:57;;;;;;;42.17;20.00;;;19.10;52.90;;;;;;4954882;28;20455;-84
2022/03/29 12:46:23;;;;;;;36.73;20.20;;;19.50;53.50;;;;;;4947281;28;20505;-83
2022/03/29 12:48:49;;;;;;;34.93;19.27;;;19.60;51.00;;;;;;4952785;28;20564;-82
2022/03/29 12:51:25;;;;;;;32.77;18.87;;;19.90;50.50;;;;;;4951911;28;20450;-81
2022/03/29 12:54:03;;;;;;;38.93;19.80;;;19.90;51.00;;;;;;4954572;28;20184;-84
2022/03/29 12:56:35;;;;;;;37.83;19.40;;;20.20;49.80;;;;;;4954963;28;20455;-83